createdAt,value
2022-08-03T00:00:52.459Z,21.49
2022-08-03T00:01:54.179Z,21.57
2022-08-03T00:02:55.869Z,21.70
2022-08-03T00:03:57.749Z,21.77
2022-08-03T00:04:59.380Z,21.69
2022-08-03T00:06:04.185Z,21.56
2022-08-03T00:07:06.620Z,21.54
2022-08-03T00:08:08.187Z,21.54
2022-08-03T00:09:11.377Z,21.49
2022-08-03T00:10:13.793Z,21.39
2022-08-03T00:11:15.387Z,21.41
2022-08-03T00:12:17.373Z,21.47
2022-08-03T00:13:19.922Z,21.58
2022-08-03T00:14:21.509Z,21.71
2022-08-03T00:15:23.189Z,21.81
2022-08-03T00:16:27.582Z,21.90
2022-08-03T00:17:29.375Z,21.91
2022-08-03T00:18:31.194Z,21.98
2022-08-03T00:19:32.754Z,22.05
2022-08-03T00:20:34.956Z,22.12
2022-08-03T00:21:37.525Z,22.18
2022-08-03T00:22:39.272Z,22.27
2022-08-03T00:23:51.301Z,22.30
2022-08-03T00:24:54.251Z,22.37
2022-08-03T00:25:56.259Z,22.42
2022-08-03T00:26:57.829Z,22.48
2022-08-03T00:27:59.443Z,22.53
2022-08-03T00:29:01.115Z,22.49
2022-08-03T00:30:02.808Z,22.47
2022-08-03T00:31:04.406Z,22.52
2022-08-03T00:32:06.255Z,22.53
2022-08-03T00:33:11.567Z,22.40
2022-08-03T00:34:13.158Z,22.25
2022-08-03T00:35:36.552Z,22.10
2022-08-03T00:36:36.694Z,21.99
2022-08-03T00:37:40.717Z,21.87
2022-08-03T00:38:42.701Z,21.70
2022-08-03T00:39:46.262Z,21.61
2022-08-03T00:40:47.840Z,21.51
2022-08-03T00:41:49.427Z,21.45
2022-08-03T00:42:51.019Z,21.37
2022-08-03T00:43:52.703Z,21.32
2022-08-03T00:44:54.282Z,21.35
2022-08-03T00:45:57.096Z,21.25
2022-08-03T00:46:58.763Z,21.17
2022-08-03T00:48:03.911Z,21.14
2022-08-03T00:49:05.540Z,21.15
2022-08-03T00:50:07.399Z,21.02
2022-08-03T00:51:09.164Z,20.99
2022-08-03T00:52:11.303Z,21.05
2022-08-03T00:53:13.548Z,21.11
2022-08-03T00:54:15.898Z,21.16
2022-08-03T00:55:18.035Z,21.25
2022-08-03T00:56:19.734Z,21.28
2022-08-03T00:57:21.397Z,21.31
2022-08-03T00:58:24.203Z,21.37
2022-08-03T00:59:25.886Z,21.42
2022-08-03T01:00:28.261Z,21.48
2022-08-03T01:01:32.388Z,21.55
2022-08-03T01:02:35.082Z,21.57
2022-08-03T01:03:36.750Z,21.55
2022-08-03T01:04:38.392Z,21.59
2022-08-03T01:05:51.864Z,21.68
2022-08-03T01:07:10.659Z,21.77
2022-08-03T01:08:52.446Z,21.85
2022-08-03T01:10:05.950Z,21.94
2022-08-03T01:11:29.097Z,21.97
2022-08-03T01:12:44.389Z,22.00
2022-08-03T01:14:18.077Z,22.03
2022-08-03T01:15:41.015Z,21.89
2022-08-03T01:17:02.777Z,21.90
2022-08-03T01:18:46.385Z,21.91
2022-08-03T01:19:57.837Z,21.86
2022-08-03T01:21:03.924Z,21.75
2022-08-03T01:22:40.188Z,21.57
2022-08-03T01:24:35.135Z,21.29
2022-08-03T01:25:54.527Z,21.05
2022-08-03T01:27:07.204Z,20.92
2022-08-03T01:28:53.189Z,20.68
2022-08-03T01:29:59.830Z,20.52
2022-08-03T01:31:06.587Z,20.29
2022-08-03T01:32:58.119Z,20.08
2022-08-03T01:33:49.923Z,19.88
2022-08-03T01:34:59.027Z,19.79
2022-08-03T01:36:07.541Z,19.70
2022-08-03T01:37:12.305Z,19.69
2022-08-03T01:38:18.227Z,19.65
2022-08-03T01:39:22.082Z,19.67
2022-08-03T01:40:27.414Z,19.64
2022-08-03T01:41:35.447Z,19.62
2022-08-03T01:42:39.963Z,19.65
2022-08-03T01:44:28.204Z,19.68
2022-08-03T01:45:10.949Z,19.66
2022-08-03T01:46:13.544Z,19.73
2022-08-03T01:47:19.983Z,19.78
2022-08-03T01:48:22.070Z,19.88
2022-08-03T01:49:25.692Z,19.97
2022-08-03T01:50:30.263Z,20.09
2022-08-03T01:52:02.831Z,20.07
2022-08-03T01:52:56.467Z,20.02
2022-08-03T01:54:00.583Z,20.04
2022-08-03T01:55:03.685Z,20.02
2022-08-03T01:56:07.176Z,19.98
2022-08-03T01:57:10.008Z,19.94
2022-08-03T01:58:14.019Z,19.96
2022-08-03T01:59:18.843Z,19.91
2022-08-03T02:00:20.603Z,19.94
2022-08-03T02:01:24.114Z,19.98
2022-08-03T02:02:33.379Z,20.05
2022-08-03T02:03:59.516Z,20.15
2022-08-03T02:05:05.908Z,20.17
2022-08-03T02:06:59.926Z,20.18
2022-08-03T02:07:36.457Z,20.25
2022-08-03T02:08:40.651Z,20.31
2022-08-03T02:09:45.124Z,20.41
2022-08-03T02:10:48.757Z,20.50
2022-08-03T02:11:52.338Z,20.58
2022-08-03T02:12:54.767Z,20.66
2022-08-03T02:13:58.611Z,20.75
2022-08-03T02:15:01.974Z,20.80
2022-08-03T02:16:04.962Z,20.84
2022-08-03T02:17:08.136Z,20.86
2022-08-03T02:18:11.165Z,20.90
2022-08-03T02:19:13.835Z,20.95
2022-08-03T02:20:16.376Z,21.00
2022-08-03T02:21:55.675Z,21.00
2022-08-03T02:22:41.571Z,20.98
2022-08-03T02:23:43.315Z,20.98
2022-08-03T02:24:45.168Z,20.98
2022-08-03T02:25:57.739Z,20.99
2022-08-03T02:27:05.585Z,21.02
2022-08-03T02:28:12.273Z,20.99
2022-08-03T02:29:21.587Z,20.96
2022-08-03T02:30:45.571Z,20.94
2022-08-03T02:31:50.423Z,20.93
2022-08-03T02:32:55.906Z,20.85
2022-08-03T02:34:03.800Z,20.83
2022-08-03T02:35:09.574Z,20.81
2022-08-03T02:36:14.191Z,20.78
2022-08-03T02:37:19.173Z,20.78
2022-08-03T02:38:26.227Z,20.79
2022-08-03T02:39:31.436Z,20.79
2022-08-03T02:40:33.387Z,20.75
2022-08-03T02:41:43.670Z,20.72
2022-08-03T02:42:46.639Z,20.73
2022-08-03T02:44:05.510Z,20.68
2022-08-03T02:45:14.029Z,20.61
2022-08-03T02:46:19.758Z,20.64
2022-08-03T02:47:22.614Z,20.68
2022-08-03T02:48:28.638Z,20.72
2022-08-03T02:49:41.138Z,20.71
2022-08-03T02:50:53.919Z,20.70
2022-08-03T02:51:57.512Z,20.66
2022-08-03T02:53:01.352Z,20.66
2022-08-03T02:54:04.899Z,20.67
2022-08-03T02:55:09.133Z,20.70
2022-08-03T02:56:11.843Z,20.62
2022-08-03T02:57:15.243Z,20.52
2022-08-03T02:58:21.187Z,20.48
2022-08-03T02:59:24.858Z,20.52
2022-08-03T03:00:28.240Z,20.56
2022-08-03T03:01:31.569Z,20.56
2022-08-03T03:02:34.984Z,20.58
2022-08-03T03:03:44.610Z,20.55
2022-08-03T03:05:52.602Z,20.45
2022-08-03T03:06:13.561Z,20.39
2022-08-03T03:07:17.905Z,20.39
2022-08-03T03:08:28.337Z,20.37
2022-08-03T03:09:40.471Z,20.31
2022-08-03T03:10:44.395Z,20.28
2022-08-03T03:11:46.382Z,20.20
2022-08-03T03:12:50.301Z,20.11
2022-08-03T03:13:52.930Z,20.10
2022-08-03T03:14:54.617Z,20.11
2022-08-03T03:15:59.744Z,20.13
2022-08-03T03:17:02.454Z,20.12
2022-08-03T03:18:05.385Z,19.99
2022-08-03T03:19:08.149Z,19.90
2022-08-03T03:20:10.464Z,19.95
2022-08-03T03:21:13.118Z,19.98
2022-08-03T03:22:16.578Z,20.01
2022-08-03T03:23:20.275Z,20.09
2022-08-03T03:24:22.080Z,20.08
2022-08-03T03:25:24.919Z,20.17
2022-08-03T03:26:27.056Z,20.22
2022-08-03T03:27:29.739Z,20.28
2022-08-03T03:28:32.526Z,20.31
2022-08-03T03:29:39.196Z,20.34
2022-08-03T03:30:41.376Z,20.37
2022-08-03T03:31:43.043Z,20.42
2022-08-03T03:32:45.178Z,20.48
2022-08-03T03:33:47.640Z,20.48
2022-08-03T03:34:50.159Z,20.48
2022-08-03T03:35:53.545Z,20.50
2022-08-03T03:36:55.139Z,20.52
2022-08-03T03:37:57.425Z,20.54
2022-08-03T03:38:59.051Z,20.54
2022-08-03T03:40:17.327Z,20.59
2022-08-03T03:41:19.102Z,20.63
2022-08-03T03:42:23.093Z,20.65
2022-08-03T03:43:25.048Z,20.67
2022-08-03T03:44:31.109Z,20.70
2022-08-03T03:45:34.879Z,20.70
2022-08-03T03:46:38.882Z,20.75
2022-08-03T03:47:41.120Z,20.80
2022-08-03T03:48:42.944Z,20.83
2022-08-03T03:49:45.411Z,20.86
2022-08-03T03:50:49.228Z,20.88
2022-08-03T03:51:56.583Z,20.94
2022-08-03T03:52:59.009Z,20.96
2022-08-03T03:54:02.909Z,20.99
2022-08-03T03:55:04.879Z,21.01
2022-08-03T03:56:06.553Z,20.99
2022-08-03T03:57:08.647Z,20.89
2022-08-03T03:58:15.188Z,20.83
2022-08-03T03:59:16.800Z,20.81
2022-08-03T04:00:19.974Z,20.80
2022-08-03T04:01:21.839Z,20.69
2022-08-03T04:02:23.681Z,20.57
2022-08-03T04:03:25.275Z,20.54
2022-08-03T04:04:45.485Z,20.46
2022-08-03T04:06:06.036Z,20.40
2022-08-03T04:07:26.141Z,20.40
2022-08-03T04:08:46.588Z,20.14
2022-08-03T04:10:14.839Z,19.92
2022-08-03T04:11:42.699Z,19.74
2022-08-03T04:12:50.033Z,19.64
2022-08-03T04:13:57.241Z,19.63
2022-08-03T04:15:04.824Z,19.65
2022-08-03T04:16:10.498Z,19.58
2022-08-03T04:17:13.680Z,19.78
2022-08-03T04:18:18.115Z,19.98
2022-08-03T04:19:35.845Z,20.18
2022-08-03T04:20:45.612Z,20.30
2022-08-03T04:21:53.004Z,20.31
2022-08-03T04:23:00.711Z,20.40
2022-08-03T04:24:04.368Z,20.45
2022-08-03T04:25:10.688Z,20.51
2022-08-03T04:26:14.089Z,20.64
2022-08-03T04:27:21.041Z,20.82
2022-08-03T04:28:30.604Z,21.02
2022-08-03T04:29:38.677Z,21.16
2022-08-03T04:30:53.509Z,21.34
2022-08-03T04:31:57.652Z,21.46
2022-08-03T04:33:01.780Z,21.58
2022-08-03T04:34:04.248Z,21.74
2022-08-03T04:35:07.149Z,21.86
2022-08-03T04:36:10.795Z,21.98
2022-08-03T04:37:19.348Z,22.09
2022-08-03T04:38:23.738Z,22.18
2022-08-03T04:39:27.737Z,22.35
2022-08-03T04:40:37.812Z,22.48
2022-08-03T04:42:04.422Z,22.57
2022-08-03T04:43:03.467Z,22.70
2022-08-03T04:44:07.113Z,22.85
2022-08-03T04:45:12.505Z,23.02
2022-08-03T04:46:15.519Z,23.19
2022-08-03T04:47:17.337Z,23.36
2022-08-03T04:48:20.143Z,23.54
2022-08-03T04:49:22.233Z,23.76
2022-08-03T04:50:25.014Z,23.94
2022-08-03T04:51:27.187Z,24.07
2022-08-03T04:52:32.343Z,24.16
2022-08-03T04:53:34.363Z,24.20
2022-08-03T04:54:48.779Z,24.24
2022-08-03T04:55:52.505Z,24.26
2022-08-03T04:56:54.326Z,24.28
2022-08-03T04:57:57.188Z,24.36
2022-08-03T04:58:58.836Z,24.41
2022-08-03T05:00:03.421Z,24.43
2022-08-03T05:01:05.434Z,24.51
2022-08-03T05:02:07.285Z,24.69
2022-08-03T05:03:23.803Z,24.88
2022-08-03T05:04:26.948Z,25.09
2022-08-03T05:05:49.464Z,25.23
2022-08-03T05:06:51.112Z,25.44
2022-08-03T05:07:56.825Z,25.62
2022-08-03T05:08:58.510Z,25.77
2022-08-03T05:10:02.858Z,25.96
2022-08-03T05:11:04.993Z,26.05
2022-08-03T05:12:07.826Z,26.06
2022-08-03T05:13:14.094Z,26.18
2022-08-03T05:14:15.759Z,25.96
2022-08-03T05:15:17.365Z,25.66
2022-08-03T05:16:19.142Z,25.65
2022-08-03T05:17:20.749Z,25.74
2022-08-03T05:18:22.531Z,25.64
2022-08-03T05:19:24.181Z,25.62
2022-08-03T05:20:25.766Z,25.74
2022-08-03T05:21:51.788Z,25.82
2022-08-03T05:22:49.247Z,26.03
2022-08-03T05:23:50.866Z,26.00
2022-08-03T05:24:52.566Z,25.81
2022-08-03T05:25:54.155Z,25.78
2022-08-03T05:26:55.747Z,25.79
2022-08-03T05:27:57.396Z,25.77
2022-08-03T05:28:59.004Z,25.92
2022-08-03T05:30:26.351Z,25.73
2022-08-03T05:31:22.308Z,25.77
2022-08-03T05:32:23.905Z,25.84
2022-08-03T05:33:25.543Z,25.70
2022-08-03T05:34:27.084Z,25.68
2022-08-03T05:36:01.805Z,25.53
2022-08-03T05:36:51.151Z,25.50
2022-08-03T05:37:54.648Z,25.67
2022-08-03T05:39:00.848Z,25.93
2022-08-03T05:40:05.807Z,26.18
2022-08-03T05:41:20.939Z,26.41
2022-08-03T05:42:25.547Z,26.60
2022-08-03T05:43:27.269Z,26.79
2022-08-03T05:44:29.064Z,26.92
2022-08-03T05:45:32.329Z,26.99
2022-08-03T05:46:33.929Z,27.12
2022-08-03T05:47:35.516Z,27.04
2022-08-03T05:48:37.134Z,26.97
2022-08-03T05:49:38.829Z,27.01
2022-08-03T05:50:42.892Z,26.77
2022-08-03T05:51:44.838Z,26.95
2022-08-03T05:52:47.086Z,27.18
2022-08-03T05:53:49.176Z,27.33
2022-08-03T05:54:55.311Z,27.38
2022-08-03T05:56:02.505Z,27.53
2022-08-03T05:57:15.299Z,27.65
2022-08-03T05:58:19.642Z,27.51
2022-08-03T05:59:37.618Z,27.63
2022-08-03T06:00:40.222Z,27.83
2022-08-03T06:01:41.959Z,27.96
2022-08-03T06:02:43.646Z,28.10
2022-08-03T06:03:46.179Z,28.24
2022-08-03T06:04:47.808Z,28.35
2022-08-03T06:05:55.490Z,28.35
2022-08-03T06:07:02.332Z,28.37
2022-08-03T06:08:04.070Z,28.37
2022-08-03T06:09:05.756Z,28.46
2022-08-03T06:10:35.775Z,28.53
2022-08-03T06:11:30.565Z,28.64
2022-08-03T06:12:35.928Z,28.85
2022-08-03T06:13:37.775Z,28.77
2022-08-03T06:14:39.655Z,28.56
2022-08-03T06:15:41.541Z,28.14
2022-08-03T06:16:43.207Z,28.35
2022-08-03T06:17:49.290Z,28.58
2022-08-03T06:18:50.892Z,28.48
2022-08-03T06:19:53.712Z,28.74
2022-08-03T06:20:55.465Z,28.99
2022-08-03T06:21:57.136Z,28.97
2022-08-03T06:23:00.182Z,29.03
2022-08-03T06:24:02.731Z,29.20
2022-08-03T06:25:12.666Z,29.47
2022-08-03T06:26:14.637Z,29.71
2022-08-03T06:27:16.880Z,29.91
2022-08-03T06:28:51.184Z,29.86
2022-08-03T06:29:40.163Z,29.45
2022-08-03T06:30:41.968Z,28.96
2022-08-03T06:31:43.572Z,28.91
2022-08-03T06:32:51.982Z,28.55
2022-08-03T06:34:32.503Z,28.63
2022-08-03T06:35:16.337Z,28.21
2022-08-03T06:36:17.933Z,28.12
2022-08-03T06:37:19.552Z,28.30
2022-08-03T06:38:21.253Z,28.67
2022-08-03T06:39:23.439Z,28.90
2022-08-03T06:40:32.152Z,28.85
2022-08-03T06:41:37.480Z,28.65
2022-08-03T06:42:39.736Z,28.58
2022-08-03T06:44:02.913Z,28.61
2022-08-03T06:45:04.376Z,28.75
2022-08-03T06:46:06.005Z,28.96
2022-08-03T06:47:07.602Z,29.25
2022-08-03T06:48:11.629Z,29.12
2022-08-03T06:49:13.629Z,28.79
2022-08-03T06:50:16.793Z,28.63
2022-08-03T06:51:19.052Z,28.89
2022-08-03T06:52:37.782Z,28.90
2022-08-03T06:53:40.014Z,28.96
2022-08-03T06:54:41.691Z,29.04
2022-08-03T06:55:43.328Z,29.25
2022-08-03T06:56:44.940Z,29.50
2022-08-03T06:57:46.582Z,29.82
2022-08-03T06:58:48.818Z,30.08
2022-08-03T07:00:10.769Z,30.28
2022-08-03T07:01:12.105Z,30.33
2022-08-03T07:02:18.305Z,30.37
2022-08-03T07:03:21.338Z,30.37
2022-08-03T07:04:22.904Z,30.34
2022-08-03T07:05:27.646Z,30.29
2022-08-03T07:06:29.344Z,30.18
2022-08-03T07:07:31.092Z,30.44
2022-08-03T07:08:33.786Z,30.77
2022-08-03T07:09:36.285Z,31.03
2022-08-03T07:10:38.031Z,31.18
2022-08-03T07:11:39.601Z,31.11
2022-08-03T07:12:52.635Z,30.96
2022-08-03T07:13:57.932Z,30.87
2022-08-03T07:15:02.637Z,30.90
2022-08-03T07:16:04.943Z,30.99
2022-08-03T07:17:11.640Z,30.85
2022-08-03T07:18:13.869Z,30.39
2022-08-03T07:19:15.714Z,30.39
2022-08-03T07:20:18.405Z,30.10
2022-08-03T07:21:20.039Z,29.93
2022-08-03T07:22:21.703Z,29.96
2022-08-03T07:23:23.349Z,29.91
2022-08-03T07:24:24.975Z,29.69
2022-08-03T07:25:29.042Z,29.67
2022-08-03T07:26:31.059Z,29.29
2022-08-03T07:27:33.775Z,29.12
2022-08-03T07:28:35.338Z,28.97
2022-08-03T07:29:37.496Z,29.33
2022-08-03T07:30:39.106Z,29.76
2022-08-03T07:31:40.764Z,30.06
2022-08-03T07:32:50.343Z,30.29
2022-08-03T07:33:52.540Z,30.69
2022-08-03T07:34:59.884Z,30.92
2022-08-03T07:36:02.645Z,31.12
2022-08-03T07:37:04.248Z,31.21
2022-08-03T07:38:05.868Z,31.12
2022-08-03T07:39:16.650Z,31.21
2022-08-03T07:40:20.161Z,31.35
2022-08-03T07:41:21.777Z,31.61
2022-08-03T07:42:24.024Z,31.77
2022-08-03T07:43:25.631Z,31.87
2022-08-03T07:44:27.213Z,31.98
2022-08-03T07:45:30.439Z,31.93
2022-08-03T07:46:32.907Z,31.96
2022-08-03T07:47:36.069Z,31.83
2022-08-03T07:48:37.795Z,31.56
2022-08-03T07:49:43.040Z,31.28
2022-08-03T07:50:44.799Z,31.04
2022-08-03T07:52:06.323Z,31.24
2022-08-03T07:53:07.917Z,31.58
2022-08-03T07:54:10.305Z,31.90
2022-08-03T07:55:11.952Z,32.10
2022-08-03T07:56:13.518Z,32.25
2022-08-03T07:57:16.172Z,32.33
2022-08-03T07:58:24.358Z,32.43
2022-08-03T07:59:26.061Z,32.43
2022-08-03T08:00:27.889Z,32.50
2022-08-03T08:01:29.680Z,32.55
2022-08-03T08:02:31.371Z,32.52
2022-08-03T08:03:41.140Z,32.54
2022-08-03T08:04:54.086Z,32.67
2022-08-03T08:05:55.657Z,32.67
2022-08-03T08:06:57.248Z,32.56
2022-08-03T08:07:58.914Z,32.62
2022-08-03T08:09:02.406Z,32.46
2022-08-03T08:10:06.492Z,32.25
2022-08-03T08:11:08.084Z,32.05
2022-08-03T08:12:15.238Z,32.11
2022-08-03T08:13:17.371Z,32.21
2022-08-03T08:14:18.985Z,32.07
2022-08-03T08:15:20.691Z,31.80
2022-08-03T08:16:22.374Z,31.68
2022-08-03T08:17:24.717Z,31.51
2022-08-03T08:18:26.392Z,31.49
2022-08-03T08:19:28.321Z,31.56
2022-08-03T08:20:38.121Z,31.72
2022-08-03T08:22:01.838Z,31.59
2022-08-03T08:23:03.547Z,31.55
2022-08-03T08:24:18.369Z,31.48
2022-08-03T08:25:22.061Z,31.47
2022-08-03T08:26:23.668Z,31.47
2022-08-03T08:27:25.471Z,31.57
2022-08-03T08:28:32.114Z,31.56
2022-08-03T08:29:35.048Z,31.40
2022-08-03T08:30:36.641Z,31.42
2022-08-03T08:31:38.327Z,31.38
2022-08-03T08:32:40.235Z,31.11
2022-08-03T08:34:03.132Z,31.08
2022-08-03T08:35:07.885Z,31.23
2022-08-03T08:36:14.851Z,31.30
2022-08-03T08:37:16.972Z,31.18
2022-08-03T08:38:18.612Z,31.15
2022-08-03T08:39:20.214Z,31.36
2022-08-03T08:40:23.020Z,31.50
2022-08-03T08:41:24.651Z,31.53
2022-08-03T08:42:34.297Z,31.59
2022-08-03T08:43:35.941Z,31.74
2022-08-03T08:44:37.633Z,31.97
2022-08-03T08:45:41.122Z,32.10
2022-08-03T08:46:44.038Z,32.18
2022-08-03T08:47:50.875Z,32.26
2022-08-03T08:48:54.546Z,32.35
2022-08-03T08:50:09.226Z,32.44
2022-08-03T08:51:12.373Z,32.59
2022-08-03T08:52:25.135Z,32.73
2022-08-03T08:53:33.219Z,32.89
2022-08-03T08:54:37.443Z,32.94
2022-08-03T08:55:57.915Z,32.94
2022-08-03T08:57:06.643Z,33.00
2022-08-03T08:58:21.607Z,33.02
2022-08-03T08:59:24.292Z,32.82
2022-08-03T09:00:26.080Z,32.81
2022-08-03T09:01:28.580Z,32.89
2022-08-03T09:02:31.388Z,32.98
2022-08-03T09:03:36.547Z,33.02
2022-08-03T09:04:39.360Z,32.94
2022-08-03T09:05:55.915Z,32.98
2022-08-03T09:07:18.721Z,33.03
2022-08-03T09:08:20.316Z,32.87
2022-08-03T09:10:04.598Z,32.87
2022-08-03T09:10:43.473Z,32.95
2022-08-03T09:11:52.354Z,33.07
2022-08-03T09:13:02.726Z,33.22
2022-08-03T09:14:05.289Z,33.34
2022-08-03T09:15:19.898Z,33.40
2022-08-03T09:16:22.951Z,33.44
2022-08-03T09:17:24.533Z,33.53
2022-08-03T09:18:33.186Z,33.60
2022-08-03T09:19:36.796Z,33.63
2022-08-03T09:20:38.452Z,33.69
2022-08-03T09:21:40.456Z,33.63
2022-08-03T09:24:00.516Z,33.59
2022-08-03T09:24:41.167Z,33.61
2022-08-03T09:25:43.956Z,33.63
2022-08-03T09:26:52.150Z,33.68
2022-08-03T09:28:03.897Z,33.69
2022-08-03T09:29:13.482Z,33.62
2022-08-03T09:30:33.379Z,33.15
2022-08-03T09:31:44.985Z,32.98
2022-08-03T09:32:47.310Z,33.13
2022-08-03T09:33:49.050Z,33.12
2022-08-03T09:34:56.484Z,33.16
2022-08-03T09:35:59.834Z,33.22
2022-08-03T09:37:01.477Z,33.29
2022-08-03T09:38:14.479Z,33.36
2022-08-03T09:39:17.215Z,33.35
2022-08-03T09:40:36.333Z,33.20
2022-08-03T09:41:39.473Z,33.11
2022-08-03T09:42:56.596Z,33.09
2022-08-03T09:43:58.270Z,33.03
2022-08-03T09:44:59.893Z,32.97
2022-08-03T09:46:05.700Z,33.00
2022-08-03T09:47:07.363Z,33.02
2022-08-03T09:48:25.989Z,33.04
2022-08-03T09:49:27.625Z,33.11
2022-08-03T09:50:29.294Z,33.08
2022-08-03T09:52:29.512Z,32.95
2022-08-03T09:52:52.990Z,33.07
2022-08-03T09:54:00.292Z,33.14
2022-08-03T09:56:32.639Z,33.14
2022-08-03T09:56:44.900Z,33.22
2022-08-03T09:57:46.631Z,33.29
2022-08-03T09:58:48.494Z,33.29
2022-08-03T09:59:58.799Z,33.36
2022-08-03T10:01:07.552Z,33.33
2022-08-03T10:02:27.633Z,33.35
2022-08-03T10:03:31.426Z,33.48
2022-08-03T10:04:33.015Z,33.57
2022-08-03T10:05:34.674Z,33.60
2022-08-03T10:06:36.241Z,33.63
2022-08-03T10:07:46.350Z,33.61
2022-08-03T10:09:07.035Z,33.42
2022-08-03T10:10:31.765Z,33.26
2022-08-03T10:11:36.215Z,33.18
2022-08-03T10:12:43.983Z,33.09
2022-08-03T10:13:46.052Z,33.12
2022-08-03T10:14:48.091Z,32.98
2022-08-03T10:16:21.969Z,32.80
2022-08-03T10:17:11.661Z,32.83
2022-08-03T10:18:13.720Z,32.88
2022-08-03T10:19:16.722Z,33.00
2022-08-03T10:20:18.486Z,33.13
2022-08-03T10:21:21.531Z,33.20
2022-08-03T10:22:24.212Z,33.21
2022-08-03T10:23:26.650Z,33.26
2022-08-03T10:24:30.771Z,33.31
2022-08-03T10:25:34.354Z,33.31
2022-08-03T10:26:39.611Z,33.40
2022-08-03T10:27:53.287Z,33.48
2022-08-03T10:28:58.159Z,33.49
2022-08-03T10:30:05.676Z,33.44
2022-08-03T10:31:09.811Z,33.26
2022-08-03T10:32:19.211Z,33.01
2022-08-03T10:33:50.112Z,32.90
2022-08-03T10:34:48.183Z,32.80
2022-08-03T10:35:54.385Z,32.74
2022-08-03T10:37:00.448Z,32.82
2022-08-03T10:38:08.638Z,32.94
2022-08-03T10:39:16.498Z,32.93
2022-08-03T10:40:39.574Z,32.90
2022-08-03T10:41:46.495Z,32.78
2022-08-03T10:42:54.635Z,32.85
2022-08-03T10:44:13.448Z,32.95
2022-08-03T10:45:25.609Z,33.01
2022-08-03T10:46:28.600Z,33.01
2022-08-03T10:47:31.917Z,33.01
2022-08-03T10:48:35.585Z,32.99
2022-08-03T10:49:38.152Z,33.01
2022-08-03T10:50:43.327Z,32.90
2022-08-03T10:51:45.945Z,32.77
2022-08-03T10:53:06.610Z,32.81
2022-08-03T10:54:33.585Z,32.83
2022-08-03T10:56:05.576Z,32.87
2022-08-03T10:57:25.869Z,32.66
2022-08-03T10:58:46.019Z,32.80
2022-08-03T10:59:55.213Z,32.95
2022-08-03T11:00:57.003Z,33.10
2022-08-03T11:02:01.059Z,33.17
2022-08-03T11:03:16.479Z,33.26
2022-08-03T11:04:20.501Z,33.35
2022-08-03T11:05:30.015Z,33.42
2022-08-03T11:06:37.399Z,33.37
2022-08-03T11:07:39.467Z,33.31
2022-08-03T11:08:41.239Z,33.29
2022-08-03T11:09:48.449Z,33.32
2022-08-03T11:10:52.905Z,33.30
2022-08-03T11:11:54.819Z,33.20
2022-08-03T11:13:07.161Z,32.94
2022-08-03T11:14:15.035Z,32.76
2022-08-03T11:15:34.730Z,32.48
2022-08-03T11:16:38.830Z,32.22
2022-08-03T11:18:11.163Z,31.87
2022-08-03T11:19:15.603Z,31.71
2022-08-03T11:20:37.176Z,31.58
2022-08-03T11:21:50.607Z,31.40
2022-08-03T11:22:54.559Z,31.34
2022-08-03T11:24:03.264Z,31.29
2022-08-03T11:25:07.874Z,31.28
2022-08-03T11:26:14.520Z,31.21
2022-08-03T11:27:29.237Z,31.16
2022-08-03T11:28:30.923Z,31.19
2022-08-03T11:29:33.406Z,31.17
2022-08-03T11:30:35.076Z,31.17
2022-08-03T11:31:49.707Z,31.11
2022-08-03T11:32:54.153Z,31.07
2022-08-03T11:34:05.927Z,31.07
2022-08-03T11:35:08.567Z,31.07
2022-08-03T11:36:10.181Z,31.11
2022-08-03T11:37:30.088Z,31.05
2022-08-03T11:38:34.825Z,31.08
2022-08-03T11:39:40.419Z,31.10
2022-08-03T11:40:50.115Z,31.10
2022-08-03T11:41:51.685Z,31.17
2022-08-03T11:42:53.290Z,31.24
2022-08-03T11:43:54.879Z,31.30
2022-08-03T11:44:58.663Z,31.36
2022-08-03T11:46:04.269Z,31.48
2022-08-03T11:47:06.379Z,31.60
2022-08-03T11:48:17.029Z,31.69
2022-08-03T11:49:23.625Z,31.79
2022-08-03T11:50:25.904Z,31.94
2022-08-03T11:51:29.770Z,32.03
2022-08-03T11:52:36.559Z,32.15
2022-08-03T11:53:42.167Z,32.16
2022-08-03T11:54:44.323Z,32.22
2022-08-03T11:55:49.054Z,32.37
2022-08-03T11:56:51.015Z,32.44
2022-08-03T11:59:01.644Z,32.45
2022-08-03T11:59:20.423Z,32.36
2022-08-03T12:00:27.546Z,32.27
2022-08-03T12:01:31.485Z,32.15
2022-08-03T12:02:33.213Z,32.05
2022-08-03T12:03:36.325Z,31.97
2022-08-03T12:05:01.533Z,31.90
2022-08-03T12:06:06.991Z,31.76
2022-08-03T12:07:08.590Z,31.71
2022-08-03T12:08:12.094Z,31.61
2022-08-03T12:09:16.814Z,31.56
2022-08-03T12:10:18.576Z,31.60
2022-08-03T12:11:20.152Z,31.56
2022-08-03T12:12:21.828Z,31.51
2022-08-03T12:14:45.644Z,31.45
2022-08-03T12:15:00.296Z,31.50
2022-08-03T12:16:02.501Z,31.51
2022-08-03T12:17:04.247Z,31.57
2022-08-03T12:18:15.223Z,31.64
2022-08-03T12:19:16.973Z,31.68
2022-08-03T12:20:31.394Z,31.62
2022-08-03T12:21:57.213Z,31.56
2022-08-03T12:23:05.297Z,31.57
2022-08-03T12:24:06.941Z,31.61
2022-08-03T12:25:09.740Z,31.66
2022-08-03T12:26:12.021Z,31.65
2022-08-03T12:27:23.233Z,31.75
2022-08-03T12:28:37.082Z,31.72
2022-08-03T12:29:44.872Z,31.61
2022-08-03T12:31:09.285Z,31.54
2022-08-03T12:32:15.577Z,31.52
2022-08-03T12:33:22.257Z,31.53
2022-08-03T12:34:23.830Z,31.50
2022-08-03T12:35:25.423Z,31.47
2022-08-03T12:36:28.066Z,31.54
2022-08-03T12:37:30.216Z,31.56
2022-08-03T12:38:33.327Z,31.56
2022-08-03T12:39:38.263Z,31.51
2022-08-03T12:41:02.815Z,31.53
2022-08-03T12:42:04.946Z,31.58
2022-08-03T12:43:14.155Z,31.64
2022-08-03T12:44:15.830Z,31.79
2022-08-03T12:45:24.966Z,31.93
2022-08-03T12:46:32.536Z,32.04
2022-08-03T12:47:51.063Z,32.10
2022-08-03T12:49:04.625Z,32.08
2022-08-03T12:50:06.760Z,31.96
2022-08-03T12:51:11.451Z,31.85
2022-08-03T12:52:13.224Z,31.84
2022-08-03T12:53:30.096Z,31.74
2022-08-03T12:54:32.704Z,31.71
2022-08-03T12:55:57.163Z,31.80
2022-08-03T12:57:04.785Z,31.79
2022-08-03T12:58:13.676Z,31.84
2022-08-03T12:59:32.349Z,31.89
2022-08-03T13:00:37.440Z,31.81
2022-08-03T13:01:55.178Z,31.70
2022-08-03T13:03:38.876Z,31.63
2022-08-03T13:04:33.649Z,31.28
2022-08-03T13:05:45.203Z,31.21
2022-08-03T13:07:02.755Z,31.04
2022-08-03T13:08:05.076Z,30.93
2022-08-03T13:09:07.892Z,30.83
2022-08-03T13:10:11.138Z,30.72
2022-08-03T13:11:53.648Z,30.79
2022-08-03T13:12:49.976Z,30.82
2022-08-03T13:13:53.128Z,30.82
2022-08-03T13:14:59.764Z,30.90
2022-08-03T13:16:01.358Z,30.85
2022-08-03T13:17:03.853Z,30.71
2022-08-03T13:18:05.681Z,30.59
2022-08-03T13:19:15.497Z,30.58
2022-08-03T13:20:17.687Z,30.56
2022-08-03T13:21:20.908Z,30.42
2022-08-03T13:22:25.588Z,30.22
2022-08-03T13:23:27.173Z,30.04
2022-08-03T13:24:29.556Z,29.97
2022-08-03T13:25:32.192Z,29.86
2022-08-03T13:26:33.862Z,29.70
2022-08-03T13:28:03.590Z,29.65
2022-08-03T13:28:57.108Z,29.66
2022-08-03T13:29:59.173Z,29.65
2022-08-03T13:31:01.330Z,29.64
2022-08-03T13:32:03.905Z,29.65
2022-08-03T13:33:05.525Z,29.74
2022-08-03T13:34:07.094Z,29.69
2022-08-03T13:35:09.669Z,29.67
2022-08-03T13:36:11.254Z,29.61
2022-08-03T13:37:13.210Z,29.62
2022-08-03T13:38:15.424Z,29.63
2022-08-03T13:39:20.074Z,29.70
2022-08-03T13:40:23.734Z,29.74
2022-08-03T13:41:31.797Z,29.78
2022-08-03T13:42:35.917Z,29.83
2022-08-03T13:43:37.593Z,29.77
2022-08-03T13:44:39.172Z,29.80
2022-08-03T13:45:42.866Z,29.80
2022-08-03T13:46:47.890Z,29.84
2022-08-03T13:47:49.661Z,29.82
2022-08-03T13:48:51.231Z,29.88
2022-08-03T13:49:59.830Z,29.94
2022-08-03T13:51:12.026Z,30.05
2022-08-03T13:52:24.509Z,30.05
2022-08-03T13:53:26.073Z,29.98
2022-08-03T13:54:28.187Z,29.90
2022-08-03T13:55:29.840Z,29.88
2022-08-03T13:56:31.897Z,30.00
2022-08-03T13:58:03.617Z,30.07
2022-08-03T13:58:57.265Z,30.01
2022-08-03T13:59:58.809Z,29.98
2022-08-03T14:01:00.455Z,30.01
2022-08-03T14:02:02.165Z,30.04
2022-08-03T14:03:12.636Z,30.08
2022-08-03T14:04:21.523Z,30.12
2022-08-03T14:05:24.276Z,30.08
2022-08-03T14:06:26.122Z,30.16
2022-08-03T14:07:27.732Z,30.23
2022-08-03T14:08:29.717Z,30.18
2022-08-03T14:09:31.359Z,30.21
2022-08-03T14:10:34.336Z,30.23
2022-08-03T14:12:07.294Z,30.26
2022-08-03T14:13:00.422Z,30.39
2022-08-03T14:14:02.331Z,30.50
2022-08-03T14:15:04.516Z,30.57
2022-08-03T14:16:06.388Z,30.55